Seaboss — 9HXV7 — position and weather

sailwx.info

Track history (hours):
 
Tides and Currents Weather Stations Pressure Air Temp Water Temp Dewpoint Dewpoint Depression Visibility Wind Speed Wind Dir Waves Ship Positions

Seaboss

Last reported at 2017-Nov-07 23:49 UTC. Time now 2017-Nov-22 01:51 UTC.
Position N 36°23' E 014°51'.
Warning: this ship's position is 14 days out of date.

Length 190 m; draft 12.3 m.

Type: Cargo ship. MMSI: 215714000.

Date/timePositionNaut miles runAvg speedWind from/ knotsBaromVisibWave heightAir tempDewpointWater temp
2017-Nov-07 23:49N 36°23' E 014°51'812.8
2017-Nov-07 23:13N 36°25' E 014°42'313.2
2017-Nov-07 23:00N 36°26' E 014°38'913.2
2017-Nov-07 22:21N 36°29' E 014°28'513.3
2017-Nov-07 22:00N 36°30' E 014°22'613.1
2017-Nov-07 21:30N 36°32' E 014°15'713.0
2017-Nov-07 21:00N 36°35' E 014°07'613.0
2017-Nov-07 20:30N 36°37' E 013°59'812.9
2017-Nov-07 19:55N 36°39' E 013°50'512.8
2017-Nov-07 19:30N 36°41' E 013°44'  
2017-Nov-04 16:25N 35°60' W 005°17'26210.5
2017-Nov-03 15:24N 38°15' W 009°58'511.6
2017-Nov-03 15:00N 38°20' W 009°59'611.7
2017-Nov-03 14:30N 38°25' W 010°00'611.7
2017-Nov-03 14:00N 38°31' W 010°02'611.7
2017-Nov-03 13:30N 38°37' W 010°04'611.9
2017-Nov-03 13:00N 38°43' W 010°06'611.5
2017-Nov-03 12:30N 38°48' W 010°06'611.5
2017-Nov-03 12:00N 38°54' W 010°06'611.4
2017-Nov-03 11:30N 38°60' W 010°06'611.1
2017-Nov-03 11:00N 39°05' W 010°06'611.5
2017-Nov-03 10:30N 39°11' W 010°06'611.6
2017-Nov-03 10:00N 39°17' W 010°06'612.0
2017-Nov-03 09:30N 39°23' W 010°06'  
2017-Nov-01 01:58N 49°18' W 004°46'610.9
2017-Nov-01 01:28N 49°21' W 004°38'511.0
2017-Nov-01 01:00N 49°23' W 004°31'611.3
2017-Nov-01 00:30N 49°26' W 004°24'611.5
2017-Nov-01 00:00N 49°29' W 004°16'611.8
2017-Oct-31 23:30N 49°32' W 004°08'712.3
2017-Oct-31 22:57N 49°35' W 003°59'612.6
2017-Oct-31 22:30N 49°38' W 003°52'612.9
2017-Oct-31 22:00N 49°41' W 003°43'713.1
2017-Oct-31 21:30N 49°45' W 003°34'713.1
2017-Oct-31 21:00N 49°48' W 003°26'613.0
2017-Oct-31 20:30N 49°51' W 003°17'712.6
2017-Oct-31 19:59N 49°54' W 003°08'612.2
2017-Oct-31 19:30N 49°57' W 003°00'611.8
2017-Oct-31 19:00N 49°60' W 002°52'611.4
2017-Oct-31 18:29N 50°01' W 002°43'610.8
2017-Oct-31 17:56N 50°03' W 002°34'410.3
2017-Oct-31 17:30N 50°04' W 002°28'5 9.9
2017-Oct-31 17:00N 50°05' W 002°20'5 9.7
2017-Oct-31 16:30N 50°07' W 002°13'5 9.6
2017-Oct-31 15:58N 50°08' W 002°05'5 9.8
2017-Oct-31 15:30N 50°09' W 001°58'5 8.7
2017-Oct-31 14:55N 50°10' W 001°51'510.8
2017-Oct-31 14:30N 50°12' W 001°44'711.4
2017-Oct-31 13:54N 50°14' W 001°33'512.1
2017-Oct-31 13:30N 50°15' W 001°26'612.6
2017-Oct-31 13:00N 50°17' W 001°17'713.1
2017-Oct-31 12:29N 50°19' W 001°07'913.5
2017-Oct-31 11:50N 50°21' W 000°53'1813.4
2017-Oct-31 10:29N 50°26' W 000°26'612.9
2017-Oct-31 10:00N 50°27' W 000°17'612.6
2017-Oct-31 09:30N 50°29' W 000°07'612.3
2017-Oct-31 09:00N 50°31' E 000°02'612.1
2017-Oct-31 08:30N 50°32' E 000°11'611.9
2017-Oct-31 08:00N 50°34' E 000°20'611.7
2017-Oct-31 07:30N 50°35' E 000°29'611.3
2017-Oct-31 07:00N 50°37' E 000°37'611.5
2017-Oct-31 06:30N 50°41' E 000°45'611.5
2017-Oct-31 06:00N 50°44' E 000°52'611.6
2017-Oct-31 05:30N 50°47' E 000°60'612.0
2017-Oct-31 05:00N 50°51' E 001°07'612.6
2017-Oct-31 04:30N 50°56' E 001°14'713.3
2017-Oct-31 04:00N 51°01' E 001°21'713.7
2017-Oct-31 03:30N 51°05' E 001°30'713.9
2017-Oct-31 03:00N 51°09' E 001°38'713.3
2017-Oct-31 02:30N 51°14' E 001°46'612.6
2017-Oct-31 02:00N 51°19' E 001°52'612.2
2017-Oct-31 01:30N 51°24' E 001°56'611.7
2017-Oct-31 01:00N 51°29' E 002°02'611.4
2017-Oct-31 00:30N 51°33' E 002°08'611.1
2017-Oct-31 00:00N 51°38' E 002°14'610.8
2017-Oct-30 23:29N 51°42' E 002°20'42710.5
2017-Oct-29 06:41N 57°39' E 009°05'2 9.5
2017-Oct-29 06:27N 57°40' E 009°09'4 9.3
2017-Oct-29 06:00N 57°42' E 009°16'5 9.4
2017-Oct-29 05:30N 57°43' E 009°24'5 9.5
2017-Oct-29 04:59N 57°45' E 009°33'4 8.5
2017-Oct-29 04:29N 57°45' E 009°41'  
Track history (hours):
 
Tides and Currents Weather Stations Pressure Air Temp Water Temp Dewpoint Dewpoint Depression Visibility Wind Speed Wind Dir Waves Ship Positions

Seaboss

Last reported at 2017-Nov-07 23:49 UTC. Time now 2017-Nov-22 01:51 UTC.
Position N 36°23' E 014°51'.
Warning: this ship's position is 14 days out of date.

Length 190 m; draft 12.3 m.

Type: Cargo ship. MMSI: 215714000.

Date/timePositionNaut miles runAvg speedWind from/ knotsBaromVisibWave heightAir tempDewpointWater temp
2017-Nov-07 23:49N 36°23' E 014°51'812.8
2017-Nov-07 23:13N 36°25' E 014°42'313.2
2017-Nov-07 23:00N 36°26' E 014°38'913.2
2017-Nov-07 22:21N 36°29' E 014°28'513.3
2017-Nov-07 22:00N 36°30' E 014°22'613.1
2017-Nov-07 21:30N 36°32' E 014°15'713.0
2017-Nov-07 21:00N 36°35' E 014°07'613.0
2017-Nov-07 20:30N 36°37' E 013°59'812.9
2017-Nov-07 19:55N 36°39' E 013°50'512.8
2017-Nov-07 19:30N 36°41' E 013°44'  
2017-Nov-04 16:25N 35°60' W 005°17'26210.5
2017-Nov-03 15:24N 38°15' W 009°58'511.6
2017-Nov-03 15:00N 38°20' W 009°59'611.7
2017-Nov-03 14:30N 38°25' W 010°00'611.7
2017-Nov-03 14:00N 38°31' W 010°02'611.7
2017-Nov-03 13:30N 38°37' W 010°04'611.9
2017-Nov-03 13:00N 38°43' W 010°06'611.5
2017-Nov-03 12:30N 38°48' W 010°06'611.5
2017-Nov-03 12:00N 38°54' W 010°06'611.4
2017-Nov-03 11:30N 38°60' W 010°06'611.1
2017-Nov-03 11:00N 39°05' W 010°06'611.5
2017-Nov-03 10:30N 39°11' W 010°06'611.6
2017-Nov-03 10:00N 39°17' W 010°06'612.0
2017-Nov-03 09:30N 39°23' W 010°06'  
2017-Nov-01 01:58N 49°18' W 004°46'610.9
2017-Nov-01 01:28N 49°21' W 004°38'511.0
2017-Nov-01 01:00N 49°23' W 004°31'611.3
2017-Nov-01 00:30N 49°26' W 004°24'611.5
2017-Nov-01 00:00N 49°29' W 004°16'611.8
2017-Oct-31 23:30N 49°32' W 004°08'712.3
2017-Oct-31 22:57N 49°35' W 003°59'612.6
2017-Oct-31 22:30N 49°38' W 003°52'612.9
2017-Oct-31 22:00N 49°41' W 003°43'713.1
2017-Oct-31 21:30N 49°45' W 003°34'713.1
2017-Oct-31 21:00N 49°48' W 003°26'613.0
2017-Oct-31 20:30N 49°51' W 003°17'712.6
2017-Oct-31 19:59N 49°54' W 003°08'612.2
2017-Oct-31 19:30N 49°57' W 003°00'611.8
2017-Oct-31 19:00N 49°60' W 002°52'611.4
2017-Oct-31 18:29N 50°01' W 002°43'610.8
2017-Oct-31 17:56N 50°03' W 002°34'410.3
2017-Oct-31 17:30N 50°04' W 002°28'5 9.9
2017-Oct-31 17:00N 50°05' W 002°20'5 9.7
2017-Oct-31 16:30N 50°07' W 002°13'5 9.6
2017-Oct-31 15:58N 50°08' W 002°05'5 9.8
2017-Oct-31 15:30N 50°09' W 001°58'5 8.7
2017-Oct-31 14:55N 50°10' W 001°51'510.8
2017-Oct-31 14:30N 50°12' W 001°44'711.4
2017-Oct-31 13:54N 50°14' W 001°33'512.1
2017-Oct-31 13:30N 50°15' W 001°26'612.6
2017-Oct-31 13:00N 50°17' W 001°17'713.1
2017-Oct-31 12:29N 50°19' W 001°07'913.5
2017-Oct-31 11:50N 50°21' W 000°53'1813.4
2017-Oct-31 10:29N 50°26' W 000°26'612.9
2017-Oct-31 10:00N 50°27' W 000°17'612.6
2017-Oct-31 09:30N 50°29' W 000°07'612.3
2017-Oct-31 09:00N 50°31' E 000°02'612.1
2017-Oct-31 08:30N 50°32' E 000°11'611.9
2017-Oct-31 08:00N 50°34' E 000°20'611.7
2017-Oct-31 07:30N 50°35' E 000°29'611.3
2017-Oct-31 07:00N 50°37' E 000°37'611.5
2017-Oct-31 06:30N 50°41' E 000°45'611.5
2017-Oct-31 06:00N 50°44' E 000°52'611.6
2017-Oct-31 05:30N 50°47' E 000°60'612.0
2017-Oct-31 05:00N 50°51' E 001°07'612.6
2017-Oct-31 04:30N 50°56' E 001°14'713.3
2017-Oct-31 04:00N 51°01' E 001°21'713.7
2017-Oct-31 03:30N 51°05' E 001°30'713.9
2017-Oct-31 03:00N 51°09' E 001°38'713.3
2017-Oct-31 02:30N 51°14' E 001°46'612.6
2017-Oct-31 02:00N 51°19' E 001°52'612.2
2017-Oct-31 01:30N 51°24' E 001°56'611.7
2017-Oct-31 01:00N 51°29' E 002°02'611.4
2017-Oct-31 00:30N 51°33' E 002°08'611.1
2017-Oct-31 00:00N 51°38' E 002°14'610.8
2017-Oct-30 23:29N 51°42' E 002°20'42710.5
2017-Oct-29 06:41N 57°39' E 009°05'2 9.5
2017-Oct-29 06:27N 57°40' E 009°09'4 9.3
2017-Oct-29 06:00N 57°42' E 009°16'5 9.4
2017-Oct-29 05:30N 57°43' E 009°24'5 9.5
2017-Oct-29 04:59N 57°45' E 009°33'4 8.5
2017-Oct-29 04:29N 57°45' E 009°41'  

Dump ship's entire track history